sensor_id;sensor_type;location;lat;lon;timestamp;temperature;humidity
7030;DHT22;3556;53.500;10.176;2023-06-14T00:01:47;15.20;99.90
7030;DHT22;3556;53.500;10.176;2023-06-14T00:04:14;15.20;99.90
7030;DHT22;3556;53.500;10.176;2023-06-14T00:06:42;15.10;99.90
7030;DHT22;3556;53.500;10.176;2023-06-14T00:09:13;15.10;99.90
7030;DHT22;3556;53.500;10.176;2023-06-14T00:11:42;15.10;99.90
7030;DHT22;3556;53.500;10.176;2023-06-14T00:14:08;15.10;99.90
7030;DHT22;3556;53.500;10.176;2023-06-14T00:16:33;15.10;99.90
7030;DHT22;3556;53.500;10.176;2023-06-14T00:19:03;15.10;99.90
7030;DHT22;3556;53.500;10.176;2023-06-14T00:21:30;15.00;99.90
7030;DHT22;3556;53.500;10.176;2023-06-14T00:23:58;15.00;99.90
7030;DHT22;3556;53.500;10.176;2023-06-14T00:26:23;15.00;99.90
7030;DHT22;3556;53.500;10.176;2023-06-14T00:28:49;14.90;99.90
7030;DHT22;3556;53.500;10.176;2023-06-14T00:31:15;14.90;99.90
7030;DHT22;3556;53.500;10.176;2023-06-14T00:33:40;14.80;99.90
7030;DHT22;3556;53.500;10.176;2023-06-14T00:36:06;14.80;99.90
7030;DHT22;3556;53.500;10.176;2023-06-14T00:38:32;14.80;99.90
7030;DHT22;3556;53.500;10.176;2023-06-14T00:40:57;14.80;99.90
7030;DHT22;3556;53.500;10.176;2023-06-14T00:43:23;14.70;99.90
7030;DHT22;3556;53.500;10.176;2023-06-14T00:45:49;14.80;99.90
7030;DHT22;3556;53.500;10.176;2023-06-14T00:48:17;14.70;99.90
7030;DHT22;3556;53.500;10.176;2023-06-14T00:50:43;14.70;99.90
7030;DHT22;3556;53.500;10.176;2023-06-14T00:53:14;14.70;99.90
7030;DHT22;3556;53.500;10.176;2023-06-14T00:55:43;14.70;99.90
7030;DHT22;3556;53.500;10.176;2023-06-14T00:58:10;14.70;99.90
7030;DHT22;3556;53.500;10.176;2023-06-14T01:00:36;14.60;99.90
7030;DHT22;3556;53.500;10.176;2023-06-14T01:03:01;14.60;99.90
7030;DHT22;3556;53.500;10.176;2023-06-14T01:05:28;14.60;99.90
7030;DHT22;3556;53.500;10.176;2023-06-14T01:10:36;14.50;99.90
7030;DHT22;3556;53.500;10.176;2023-06-14T01:15:51;14.40;99.90
7030;DHT22;3556;53.500;10.176;2023-06-14T01:18:17;14.40;99.90
7030;DHT22;3556;53.500;10.176;2023-06-14T01:20:44;14.40;99.90
7030;DHT22;3556;53.500;10.176;2023-06-14T01:23:11;14.40;99.90
7030;DHT22;3556;53.500;10.176;2023-06-14T01:25:40;14.40;99.90
7030;DHT22;3556;53.500;10.176;2023-06-14T01:28:10;14.30;99.90
7030;DHT22;3556;53.500;10.176;2023-06-14T01:30:40;14.30;99.90
7030;DHT22;3556;53.500;10.176;2023-06-14T01:33:14;14.30;99.90
7030;DHT22;3556;53.500;10.176;2023-06-14T01:35:43;14.20;99.90
7030;DHT22;3556;53.500;10.176;2023-06-14T01:38:10;14.10;99.90
7030;DHT22;3556;53.500;10.176;2023-06-14T01:40:36;14.10;99.90
7030;DHT22;3556;53.500;10.176;2023-06-14T01:43:03;14.10;99.90
7030;DHT22;3556;53.500;10.176;2023-06-14T01:45:29;14.20;99.90
7030;DHT22;3556;53.500;10.176;2023-06-14T01:47:56;14.10;99.90
7030;DHT22;3556;53.500;10.176;2023-06-14T01:50:21;14.10;99.90
7030;DHT22;3556;53.500;10.176;2023-06-14T01:52:47;14.10;99.90
7030;DHT22;3556;53.500;10.176;2023-06-14T01:55:13;14.10;99.90
7030;DHT22;3556;53.500;10.176;2023-06-14T01:57:38;14.10;99.90
7030;DHT22;3556;53.500;10.176;2023-06-14T02:00:05;14.10;99.90
7030;DHT22;3556;53.500;10.176;2023-06-14T02:02:38;14.00;99.90
7030;DHT22;3556;53.500;10.176;2023-06-14T02:05:04;13.90;99.90
7030;DHT22;3556;53.500;10.176;2023-06-14T02:07:29;13.90;99.90
7030;DHT22;3556;53.500;10.176;2023-06-14T02:09:55;13.90;99.90
7030;DHT22;3556;53.500;10.176;2023-06-14T02:12:21;13.90;99.90
7030;DHT22;3556;53.500;10.176;2023-06-14T02:14:46;13.90;99.90
7030;DHT22;3556;53.500;10.176;2023-06-14T02:17:12;13.90;99.90
7030;DHT22;3556;53.500;10.176;2023-06-14T02:19:37;13.80;99.90
7030;DHT22;3556;53.500;10.176;2023-06-14T02:22:04;13.80;99.90
7030;DHT22;3556;53.500;10.176;2023-06-14T02:24:29;13.80;99.90
7030;DHT22;3556;53.500;10.176;2023-06-14T02:26:55;13.80;99.90
7030;DHT22;3556;53.500;10.176;2023-06-14T02:29:21;13.70;99.90
7030;DHT22;3556;53.500;10.176;2023-06-14T02:31:46;13.70;99.90
7030;DHT22;3556;53.500;10.176;2023-06-14T02:34:14;13.70;99.90
7030;DHT22;3556;53.500;10.176;2023-06-14T02:36:42;13.60;99.90
7030;DHT22;3556;53.500;10.176;2023-06-14T02:39:08;13.60;99.90
7030;DHT22;3556;53.500;10.176;2023-06-14T02:41:37;13.60;99.90
7030;DHT22;3556;53.500;10.176;2023-06-14T02:44:03;13.60;99.90
7030;DHT22;3556;53.500;10.176;2023-06-14T02:46:29;13.60;99.90
7030;DHT22;3556;53.500;10.176;2023-06-14T02:48:55;13.50;99.90
7030;DHT22;3556;53.500;10.176;2023-06-14T02:51:20;13.50;99.90
7030;DHT22;3556;53.500;10.176;2023-06-14T02:53:46;13.50;99.90
7030;DHT22;3556;53.500;10.176;2023-06-14T02:56:12;13.50;99.90
7030;DHT22;3556;53.500;10.176;2023-06-14T02:58:38;13.50;99.90
7030;DHT22;3556;53.500;10.176;2023-06-14T03:01:05;13.50;99.90
7030;DHT22;3556;53.500;10.176;2023-06-14T03:03:33;13.50;99.90
7030;DHT22;3556;53.500;10.176;2023-06-14T03:05:59;13.50;99.90
7030;DHT22;3556;53.500;10.176;2023-06-14T03:08:29;13.40;99.90
7030;DHT22;3556;53.500;10.176;2023-06-14T03:10:57;13.40;99.90
7030;DHT22;3556;53.500;10.176;2023-06-14T03:13:23;13.40;99.90
7030;DHT22;3556;53.500;10.176;2023-06-14T03:15:48;13.30;99.90
7030;DHT22;3556;53.500;10.176;2023-06-14T03:18:17;13.40;99.90
7030;DHT22;3556;53.500;10.176;2023-06-14T03:20:42;13.40;99.90
7030;DHT22;3556;53.500;10.176;2023-06-14T03:23:11;13.40;99.90
7030;DHT22;3556;53.500;10.176;2023-06-14T03:25:37;13.40;99.90
7030;DHT22;3556;53.500;10.176;2023-06-14T03:28:04;13.40;99.90
7030;DHT22;3556;53.500;10.176;2023-06-14T03:30:31;13.40;99.90
7030;DHT22;3556;53.500;10.176;2023-06-14T03:32:57;13.40;99.90
7030;DHT22;3556;53.500;10.176;2023-06-14T03:35:23;13.40;99.90
7030;DHT22;3556;53.500;10.176;2023-06-14T03:37:49;13.40;99.90
7030;DHT22;3556;53.500;10.176;2023-06-14T03:40:17;13.40;99.90
7030;DHT22;3556;53.500;10.176;2023-06-14T03:42:43;13.30;99.90
7030;DHT22;3556;53.500;10.176;2023-06-14T03:45:09;13.30;99.90
7030;DHT22;3556;53.500;10.176;2023-06-14T03:47:35;13.30;99.90
7030;DHT22;3556;53.500;10.176;2023-06-14T03:50:02;13.40;99.90
7030;DHT22;3556;53.500;10.176;2023-06-14T03:52:28;13.40;99.90
7030;DHT22;3556;53.500;10.176;2023-06-14T03:54:54;13.40;99.90
7030;DHT22;3556;53.500;10.176;2023-06-14T03:57:21;13.40;99.90
7030;DHT22;3556;53.500;10.176;2023-06-14T03:59:47;13.40;99.90
7030;DHT22;3556;53.500;10.176;2023-06-14T04:02:13;13.40;99.90
7030;DHT22;3556;53.500;10.176;2023-06-14T04:04:42;13.50;99.90
7030;DHT22;3556;53.500;10.176;2023-06-14T04:07:11;13.50;99.90
7030;DHT22;3556;53.500;10.176;2023-06-14T04:09:37;13.50;99.90
7030;DHT22;3556;53.500;10.176;2023-06-14T04:12:04;13.60;99.90
7030;DHT22;3556;53.500;10.176;2023-06-14T04:14:29;13.60;99.90
7030;DHT22;3556;53.500;10.176;2023-06-14T04:16:56;13.70;99.90
7030;DHT22;3556;53.500;10.176;2023-06-14T04:19:22;13.70;99.90
7030;DHT22;3556;53.500;10.176;2023-06-14T04:21:47;13.70;99.90
7030;DHT22;3556;53.500;10.176;2023-06-14T04:24:13;13.80;99.90
7030;DHT22;3556;53.500;10.176;2023-06-14T04:26:43;13.80;99.90
7030;DHT22;3556;53.500;10.176;2023-06-14T04:29:16;13.90;99.90
7030;DHT22;3556;53.500;10.176;2023-06-14T04:31:45;13.90;99.90
7030;DHT22;3556;53.500;10.176;2023-06-14T04:34:12;14.00;99.90
7030;DHT22;3556;53.500;10.176;2023-06-14T04:36:44;14.00;99.90
7030;DHT22;3556;53.500;10.176;2023-06-14T04:39:17;14.10;99.90
7030;DHT22;3556;53.500;10.176;2023-06-14T04:41:44;14.20;99.90
7030;DHT22;3556;53.500;10.176;2023-06-14T04:44:09;14.20;99.90
7030;DHT22;3556;53.500;10.176;2023-06-14T04:46:36;14.30;99.90
7030;DHT22;3556;53.500;10.176;2023-06-14T04:49:16;14.40;99.90
7030;DHT22;3556;53.500;10.176;2023-06-14T04:51:43;14.50;99.90
7030;DHT22;3556;53.500;10.176;2023-06-14T04:54:10;14.60;99.90
7030;DHT22;3556;53.500;10.176;2023-06-14T04:56:38;14.60;99.90
7030;DHT22;3556;53.500;10.176;2023-06-14T04:59:04;14.70;99.90
7030;DHT22;3556;53.500;10.176;2023-06-14T05:01:31;14.80;99.90
7030;DHT22;3556;53.500;10.176;2023-06-14T05:03:59;14.90;99.90
7030;DHT22;3556;53.500;10.176;2023-06-14T05:06:25;15.00;99.90
7030;DHT22;3556;53.500;10.176;2023-06-14T05:08:53;15.10;99.90
7030;DHT22;3556;53.500;10.176;2023-06-14T05:11:18;15.10;99.90
7030;DHT22;3556;53.500;10.176;2023-06-14T05:13:44;15.30;99.90
7030;DHT22;3556;53.500;10.176;2023-06-14T05:16:11;15.30;99.90
7030;DHT22;3556;53.500;10.176;2023-06-14T05:18:37;15.40;99.90
7030;DHT22;3556;53.500;10.176;2023-06-14T05:21:03;15.50;99.90
7030;DHT22;3556;53.500;10.176;2023-06-14T05:23:31;15.60;99.90
7030;DHT22;3556;53.500;10.176;2023-06-14T05:25:56;15.70;99.90
7030;DHT22;3556;53.500;10.176;2023-06-14T05:28:22;15.80;99.90
7030;DHT22;3556;53.500;10.176;2023-06-14T05:30:48;15.90;99.90
7030;DHT22;3556;53.500;10.176;2023-06-14T05:33:14;16.00;99.90
7030;DHT22;3556;53.500;10.176;2023-06-14T05:35:40;16.10;99.90
7030;DHT22;3556;53.500;10.176;2023-06-14T05:38:05;16.20;99.90
7030;DHT22;3556;53.500;10.176;2023-06-14T05:40:33;16.30;99.90
7030;DHT22;3556;53.500;10.176;2023-06-14T05:42:58;16.40;99.90
7030;DHT22;3556;53.500;10.176;2023-06-14T05:45:24;16.50;99.90
7030;DHT22;3556;53.500;10.176;2023-06-14T05:47:50;16.60;99.90
7030;DHT22;3556;53.500;10.176;2023-06-14T05:50:16;16.60;99.90
7030;DHT22;3556;53.500;10.176;2023-06-14T05:52:41;16.70;99.90
7030;DHT22;3556;53.500;10.176;2023-06-14T05:55:07;16.80;99.90
7030;DHT22;3556;53.500;10.176;2023-06-14T05:57:33;16.90;99.90
7030;DHT22;3556;53.500;10.176;2023-06-14T05:59:58;17.00;99.90
7030;DHT22;3556;53.500;10.176;2023-06-14T06:02:24;17.10;99.90
7030;DHT22;3556;53.500;10.176;2023-06-14T06:04:50;17.20;99.90
7030;DHT22;3556;53.500;10.176;2023-06-14T06:07:15;17.30;99.90
7030;DHT22;3556;53.500;10.176;2023-06-14T06:09:41;17.40;99.90
7030;DHT22;3556;53.500;10.176;2023-06-14T06:12:07;17.50;99.90
7030;DHT22;3556;53.500;10.176;2023-06-14T06:14:33;17.60;99.90
7030;DHT22;3556;53.500;10.176;2023-06-14T06:16:59;17.70;99.90
7030;DHT22;3556;53.500;10.176;2023-06-14T06:19:24;17.80;99.90
7030;DHT22;3556;53.500;10.176;2023-06-14T06:21:50;17.90;99.90
7030;DHT22;3556;53.500;10.176;2023-06-14T06:24:16;18.00;99.90
7030;DHT22;3556;53.500;10.176;2023-06-14T06:26:42;18.10;99.90
7030;DHT22;3556;53.500;10.176;2023-06-14T06:29:08;18.20;99.90
7030;DHT22;3556;53.500;10.176;2023-06-14T06:31:33;18.30;99.90
7030;DHT22;3556;53.500;10.176;2023-06-14T06:33:59;18.40;99.90
7030;DHT22;3556;53.500;10.176;2023-06-14T06:36:25;18.50;99.90
7030;DHT22;3556;53.500;10.176;2023-06-14T06:38:50;18.60;99.90
7030;DHT22;3556;53.500;10.176;2023-06-14T06:41:16;18.70;99.90
7030;DHT22;3556;53.500;10.176;2023-06-14T06:43:42;18.80;99.90
7030;DHT22;3556;53.500;10.176;2023-06-14T06:46:07;18.90;99.90
7030;DHT22;3556;53.500;10.176;2023-06-14T06:48:33;19.00;99.90
7030;DHT22;3556;53.500;10.176;2023-06-14T06:50:59;19.10;99.90
7030;DHT22;3556;53.500;10.176;2023-06-14T06:53:24;19.20;99.90
7030;DHT22;3556;53.500;10.176;2023-06-14T06:55:50;19.40;99.90
7030;DHT22;3556;53.500;10.176;2023-06-14T06:58:16;19.50;99.90
7030;DHT22;3556;53.500;10.176;2023-06-14T07:00:42;19.50;99.90
7030;DHT22;3556;53.500;10.176;2023-06-14T07:03:07;19.60;99.90
7030;DHT22;3556;53.500;10.176;2023-06-14T07:05:33;19.70;99.90
7030;DHT22;3556;53.500;10.176;2023-06-14T07:07:59;19.80;99.90
7030;DHT22;3556;53.500;10.176;2023-06-14T07:10:25;19.90;99.90
7030;DHT22;3556;53.500;10.176;2023-06-14T07:12:51;20.00;99.90
7030;DHT22;3556;53.500;10.176;2023-06-14T07:15:16;20.10;99.90
7030;DHT22;3556;53.500;10.176;2023-06-14T07:17:42;20.10;99.90
7030;DHT22;3556;53.500;10.176;2023-06-14T07:20:08;20.20;99.90
7030;DHT22;3556;53.500;10.176;2023-06-14T07:22:41;20.30;99.90
7030;DHT22;3556;53.500;10.176;2023-06-14T07:25:09;20.40;99.90
7030;DHT22;3556;53.500;10.176;2023-06-14T07:27:34;20.50;99.40
7030;DHT22;3556;53.500;10.176;2023-06-14T07:30:00;20.50;99.10
7030;DHT22;3556;53.500;10.176;2023-06-14T07:32:26;20.60;98.10
7030;DHT22;3556;53.500;10.176;2023-06-14T07:34:51;20.60;98.90
7030;DHT22;3556;53.500;10.176;2023-06-14T07:37:17;20.70;98.70
7030;DHT22;3556;53.500;10.176;2023-06-14T07:39:43;20.70;98.20
7030;DHT22;3556;53.500;10.176;2023-06-14T07:42:08;20.70;97.90
7030;DHT22;3556;53.500;10.176;2023-06-14T07:44:34;20.80;98.10
7030;DHT22;3556;53.500;10.176;2023-06-14T07:47:00;20.80;97.70
7030;DHT22;3556;53.500;10.176;2023-06-14T07:49:27;20.90;97.50
7030;DHT22;3556;53.500;10.176;2023-06-14T07:51:52;21.00;97.70
7030;DHT22;3556;53.500;10.176;2023-06-14T07:54:19;21.10;97.60
7030;DHT22;3556;53.500;10.176;2023-06-14T07:56:44;21.20;97.20
7030;DHT22;3556;53.500;10.176;2023-06-14T07:59:10;21.30;96.40
7030;DHT22;3556;53.500;10.176;2023-06-14T08:01:36;21.30;95.90
7030;DHT22;3556;53.500;10.176;2023-06-14T08:04:01;21.40;95.90
7030;DHT22;3556;53.500;10.176;2023-06-14T08:06:27;21.50;96.20
7030;DHT22;3556;53.500;10.176;2023-06-14T08:08:53;21.60;96.30
7030;DHT22;3556;53.500;10.176;2023-06-14T08:11:18;21.70;96.60
7030;DHT22;3556;53.500;10.176;2023-06-14T08:13:44;21.80;96.10
7030;DHT22;3556;53.500;10.176;2023-06-14T08:16:10;22.00;96.10
7030;DHT22;3556;53.500;10.176;2023-06-14T08:18:36;22.10;94.90
7030;DHT22;3556;53.500;10.176;2023-06-14T08:21:02;22.20;95.30
7030;DHT22;3556;53.500;10.176;2023-06-14T08:23:28;22.30;95.40
7030;DHT22;3556;53.500;10.176;2023-06-14T08:25:54;22.30;94.70
7030;DHT22;3556;53.500;10.176;2023-06-14T08:28:20;22.40;94.20
7030;DHT22;3556;53.500;10.176;2023-06-14T08:30:46;22.40;94.60
7030;DHT22;3556;53.500;10.176;2023-06-14T08:33:11;22.50;94.10
7030;DHT22;3556;53.500;10.176;2023-06-14T08:35:37;22.50;93.60
7030;DHT22;3556;53.500;10.176;2023-06-14T08:38:04;22.50;93.40
7030;DHT22;3556;53.500;10.176;2023-06-14T08:40:31;22.60;93.30
7030;DHT22;3556;53.500;10.176;2023-06-14T08:42:56;22.70;92.90
7030;DHT22;3556;53.500;10.176;2023-06-14T08:45:23;22.70;93.60
7030;DHT22;3556;53.500;10.176;2023-06-14T08:47:50;22.80;92.80
7030;DHT22;3556;53.500;10.176;2023-06-14T08:50:20;22.90;93.00
7030;DHT22;3556;53.500;10.176;2023-06-14T08:52:46;23.00;92.50
7030;DHT22;3556;53.500;10.176;2023-06-14T08:55:15;23.20;92.40
7030;DHT22;3556;53.500;10.176;2023-06-14T08:57:44;23.30;92.10
7030;DHT22;3556;53.500;10.176;2023-06-14T09:00:11;23.30;91.70
7030;DHT22;3556;53.500;10.176;2023-06-14T09:02:39;23.40;92.30
7030;DHT22;3556;53.500;10.176;2023-06-14T09:05:09;23.50;91.60
7030;DHT22;3556;53.500;10.176;2023-06-14T09:07:37;23.50;90.90
7030;DHT22;3556;53.500;10.176;2023-06-14T09:10:12;23.60;90.90
7030;DHT22;3556;53.500;10.176;2023-06-14T09:12:38;23.60;90.60
7030;DHT22;3556;53.500;10.176;2023-06-14T09:15:05;23.60;90.90
7030;DHT22;3556;53.500;10.176;2023-06-14T09:17:35;23.60;90.70
7030;DHT22;3556;53.500;10.176;2023-06-14T09:20:05;23.70;90.80
7030;DHT22;3556;53.500;10.176;2023-06-14T09:22:32;23.80;90.70
7030;DHT22;3556;53.500;10.176;2023-06-14T09:24:58;23.80;90.10
7030;DHT22;3556;53.500;10.176;2023-06-14T09:27:25;23.90;90.10
7030;DHT22;3556;53.500;10.176;2023-06-14T09:29:52;24.00;90.00
7030;DHT22;3556;53.500;10.176;2023-06-14T09:32:18;24.10;89.80
7030;DHT22;3556;53.500;10.176;2023-06-14T09:34:46;24.10;89.30
7030;DHT22;3556;53.500;10.176;2023-06-14T09:37:12;24.10;88.20
7030;DHT22;3556;53.500;10.176;2023-06-14T09:39:50;24.10;87.10
7030;DHT22;3556;53.500;10.176;2023-06-14T09:42:17;24.10;87.90
7030;DHT22;3556;53.500;10.176;2023-06-14T09:44:47;24.20;89.50
7030;DHT22;3556;53.500;10.176;2023-06-14T09:47:13;24.20;87.30
7030;DHT22;3556;53.500;10.176;2023-06-14T09:49:40;24.20;87.70
7030;DHT22;3556;53.500;10.176;2023-06-14T09:52:06;24.30;88.20
7030;DHT22;3556;53.500;10.176;2023-06-14T09:54:41;24.50;88.00
7030;DHT22;3556;53.500;10.176;2023-06-14T09:57:12;24.60;85.50
7030;DHT22;3556;53.500;10.176;2023-06-14T09:59:45;24.70;85.50
7030;DHT22;3556;53.500;10.176;2023-06-14T10:02:36;24.80;84.70
7030;DHT22;3556;53.500;10.176;2023-06-14T10:05:07;24.90;83.60
7030;DHT22;3556;53.500;10.176;2023-06-14T10:07:44;25.00;84.90
7030;DHT22;3556;53.500;10.176;2023-06-14T10:10:10;25.00;84.30
7030;DHT22;3556;53.500;10.176;2023-06-14T10:12:36;24.90;83.30
7030;DHT22;3556;53.500;10.176;2023-06-14T10:15:03;24.90;83.80
7030;DHT22;3556;53.500;10.176;2023-06-14T10:20:14;25.20;80.00
7030;DHT22;3556;53.500;10.176;2023-06-14T10:22:49;25.20;79.90
7030;DHT22;3556;53.500;10.176;2023-06-14T10:25:29;25.40;80.90
7030;DHT22;3556;53.500;10.176;2023-06-14T10:28:17;25.40;81.50
7030;DHT22;3556;53.500;10.176;2023-06-14T10:31:11;25.50;80.00
7030;DHT22;3556;53.500;10.176;2023-06-14T10:33:48;25.40;80.00
7030;DHT22;3556;53.500;10.176;2023-06-14T10:36:30;25.30;79.40
7030;DHT22;3556;53.500;10.176;2023-06-14T10:38:58;25.20;80.20
7030;DHT22;3556;53.500;10.176;2023-06-14T10:41:27;25.20;81.90
7030;DHT22;3556;53.500;10.176;2023-06-14T10:46:39;25.30;80.50
7030;DHT22;3556;53.500;10.176;2023-06-14T10:49:06;25.40;80.10
7030;DHT22;3556;53.500;10.176;2023-06-14T10:51:45;25.40;77.90
7030;DHT22;3556;53.500;10.176;2023-06-14T10:54:15;25.50;79.60
7030;DHT22;3556;53.500;10.176;2023-06-14T10:56:48;25.50;80.40
7030;DHT22;3556;53.500;10.176;2023-06-14T10:59:14;25.50;81.10
7030;DHT22;3556;53.500;10.176;2023-06-14T11:02:23;25.50;79.70
7030;DHT22;3556;53.500;10.176;2023-06-14T11:04:52;25.30;78.70
7030;DHT22;3556;53.500;10.176;2023-06-14T11:12:56;25.90;78.70
7030;DHT22;3556;53.500;10.176;2023-06-14T11:15:31;26.30;78.10
7030;DHT22;3556;53.500;10.176;2023-06-14T11:17:57;26.60;74.80
7030;DHT22;3556;53.500;10.176;2023-06-14T11:20:27;26.90;74.40
7030;DHT22;3556;53.500;10.176;2023-06-14T11:22:53;27.10;75.20
7030;DHT22;3556;53.500;10.176;2023-06-14T11:25:19;27.20;74.20
7030;DHT22;3556;53.500;10.176;2023-06-14T11:27:46;27.00;71.90
7030;DHT22;3556;53.500;10.176;2023-06-14T11:30:13;26.80;71.90
7030;DHT22;3556;53.500;10.176;2023-06-14T11:32:39;26.60;71.10
7030;DHT22;3556;53.500;10.176;2023-06-14T11:35:05;26.50;72.90
7030;DHT22;3556;53.500;10.176;2023-06-14T11:37:31;26.70;72.30
7030;DHT22;3556;53.500;10.176;2023-06-14T11:40:01;27.00;69.30
7030;DHT22;3556;53.500;10.176;2023-06-14T11:42:27;27.20;69.10
7030;DHT22;3556;53.500;10.176;2023-06-14T11:44:54;27.00;68.10
7030;DHT22;3556;53.500;10.176;2023-06-14T11:47:20;26.90;68.60
7030;DHT22;3556;53.500;10.176;2023-06-14T11:49:46;26.60;68.60
7030;DHT22;3556;53.500;10.176;2023-06-14T11:52:12;26.30;69.70
7030;DHT22;3556;53.500;10.176;2023-06-14T11:54:38;26.40;70.50
7030;DHT22;3556;53.500;10.176;2023-06-14T11:57:08;26.80;71.50
7030;DHT22;3556;53.500;10.176;2023-06-14T11:59:39;27.20;66.90
7030;DHT22;3556;53.500;10.176;2023-06-14T12:02:05;27.40;68.00
7030;DHT22;3556;53.500;10.176;2023-06-14T12:04:31;27.50;66.00
7030;DHT22;3556;53.500;10.176;2023-06-14T12:06:57;27.40;67.80
7030;DHT22;3556;53.500;10.176;2023-06-14T12:09:35;27.40;70.20
7030;DHT22;3556;53.500;10.176;2023-06-14T12:12:00;27.70;66.20
7030;DHT22;3556;53.500;10.176;2023-06-14T12:14:30;27.90;67.10
7030;DHT22;3556;53.500;10.176;2023-06-14T12:17:06;28.30;63.20
7030;DHT22;3556;53.500;10.176;2023-06-14T12:19:32;28.60;62.20
7030;DHT22;3556;53.500;10.176;2023-06-14T12:22:03;28.80;60.90
7030;DHT22;3556;53.500;10.176;2023-06-14T12:24:30;29.10;59.20
7030;DHT22;3556;53.500;10.176;2023-06-14T12:27:00;29.10;61.70
7030;DHT22;3556;53.500;10.176;2023-06-14T12:29:31;29.20;59.20
7030;DHT22;3556;53.500;10.176;2023-06-14T12:31:57;29.00;60.00
7030;DHT22;3556;53.500;10.176;2023-06-14T12:34:27;28.80;61.00
7030;DHT22;3556;53.500;10.176;2023-06-14T12:36:55;28.50;61.50
7030;DHT22;3556;53.500;10.176;2023-06-14T12:39:21;28.30;62.60
7030;DHT22;3556;53.500;10.176;2023-06-14T12:41:48;28.40;62.00
7030;DHT22;3556;53.500;10.176;2023-06-14T12:44:16;28.70;60.30
7030;DHT22;3556;53.500;10.176;2023-06-14T12:46:42;29.10;59.20
7030;DHT22;3556;53.500;10.176;2023-06-14T12:49:10;29.40;61.10
7030;DHT22;3556;53.500;10.176;2023-06-14T12:51:37;29.80;57.50
7030;DHT22;3556;53.500;10.176;2023-06-14T12:54:02;30.10;56.00
7030;DHT22;3556;53.500;10.176;2023-06-14T12:56:28;30.40;54.90
7030;DHT22;3556;53.500;10.176;2023-06-14T12:58:54;30.60;54.50
7030;DHT22;3556;53.500;10.176;2023-06-14T13:01:19;30.70;55.90
7030;DHT22;3556;53.500;10.176;2023-06-14T13:03:48;30.80;54.90
7030;DHT22;3556;53.500;10.176;2023-06-14T13:06:15;30.80;53.40
7030;DHT22;3556;53.500;10.176;2023-06-14T13:08:41;30.70;54.10
7030;DHT22;3556;53.500;10.176;2023-06-14T13:11:06;30.50;53.30
7030;DHT22;3556;53.500;10.176;2023-06-14T13:13:32;30.40;52.40
7030;DHT22;3556;53.500;10.176;2023-06-14T13:15:58;30.10;52.60
7030;DHT22;3556;53.500;10.176;2023-06-14T13:18:24;29.80;54.90
7030;DHT22;3556;53.500;10.176;2023-06-14T13:20:49;29.90;53.80
7030;DHT22;3556;53.500;10.176;2023-06-14T13:23:16;30.10;54.20
7030;DHT22;3556;53.500;10.176;2023-06-14T13:25:41;30.30;52.90
7030;DHT22;3556;53.500;10.176;2023-06-14T13:28:07;30.50;51.00
7030;DHT22;3556;53.500;10.176;2023-06-14T13:30:33;30.50;50.90
7030;DHT22;3556;53.500;10.176;2023-06-14T13:33:00;30.60;51.40
7030;DHT22;3556;53.500;10.176;2023-06-14T13:35:25;30.80;50.90
7030;DHT22;3556;53.500;10.176;2023-06-14T13:37:52;30.80;49.60
7030;DHT22;3556;53.500;10.176;2023-06-14T13:40:18;31.00;49.90
7030;DHT22;3556;53.500;10.176;2023-06-14T13:42:44;31.10;50.80
7030;DHT22;3556;53.500;10.176;2023-06-14T13:45:11;31.10;50.60
7030;DHT22;3556;53.500;10.176;2023-06-14T13:47:37;31.10;50.20
7030;DHT22;3556;53.500;10.176;2023-06-14T13:50:04;31.10;49.40
7030;DHT22;3556;53.500;10.176;2023-06-14T13:52:30;31.20;51.40
7030;DHT22;3556;53.500;10.176;2023-06-14T13:54:56;31.30;50.00
7030;DHT22;3556;53.500;10.176;2023-06-14T13:57:21;31.00;48.40
7030;DHT22;3556;53.500;10.176;2023-06-14T13:59:47;30.70;50.00
7030;DHT22;3556;53.500;10.176;2023-06-14T14:02:14;30.80;49.90
7030;DHT22;3556;53.500;10.176;2023-06-14T14:04:40;30.80;50.30
7030;DHT22;3556;53.500;10.176;2023-06-14T14:07:06;30.90;49.80
7030;DHT22;3556;53.500;10.176;2023-06-14T14:09:33;30.90;48.60
7030;DHT22;3556;53.500;10.176;2023-06-14T14:12:00;30.50;49.40
7030;DHT22;3556;53.500;10.176;2023-06-14T14:14:26;30.00;49.80
7030;DHT22;3556;53.500;10.176;2023-06-14T14:16:52;29.60;50.00
7030;DHT22;3556;53.500;10.176;2023-06-14T14:19:20;29.30;51.40
7030;DHT22;3556;53.500;10.176;2023-06-14T14:21:46;29.20;52.20
7030;DHT22;3556;53.500;10.176;2023-06-14T14:24:12;29.20;51.70
7030;DHT22;3556;53.500;10.176;2023-06-14T14:26:38;29.40;52.20
7030;DHT22;3556;53.500;10.176;2023-06-14T14:29:04;29.50;52.00
7030;DHT22;3556;53.500;10.176;2023-06-14T14:31:30;29.40;49.60
7030;DHT22;3556;53.500;10.176;2023-06-14T14:33:55;29.30;51.20
7030;DHT22;3556;53.500;10.176;2023-06-14T14:36:21;29.10;52.40
7030;DHT22;3556;53.500;10.176;2023-06-14T14:38:47;28.80;52.20
7030;DHT22;3556;53.500;10.176;2023-06-14T14:41:13;28.70;52.70
7030;DHT22;3556;53.500;10.176;2023-06-14T14:43:39;28.70;53.00
7030;DHT22;3556;53.500;10.176;2023-06-14T14:46:05;28.80;53.20
7030;DHT22;3556;53.500;10.176;2023-06-14T14:48:30;28.90;52.60
7030;DHT22;3556;53.500;10.176;2023-06-14T14:50:56;29.00;51.60
7030;DHT22;3556;53.500;10.176;2023-06-14T14:53:22;28.80;52.30
7030;DHT22;3556;53.500;10.176;2023-06-14T14:55:48;28.60;52.10
7030;DHT22;3556;53.500;10.176;2023-06-14T14:58:14;28.60;54.50
7030;DHT22;3556;53.500;10.176;2023-06-14T15:00:44;28.50;53.30
7030;DHT22;3556;53.500;10.176;2023-06-14T15:03:10;28.40;52.60
7030;DHT22;3556;53.500;10.176;2023-06-14T15:05:36;28.30;52.40
7030;DHT22;3556;53.500;10.176;2023-06-14T15:08:03;28.10;51.50
7030;DHT22;3556;53.500;10.176;2023-06-14T15:10:29;28.10;53.00
7030;DHT22;3556;53.500;10.176;2023-06-14T15:12:55;28.10;52.00
7030;DHT22;3556;53.500;10.176;2023-06-14T15:15:22;28.10;52.70
7030;DHT22;3556;53.500;10.176;2023-06-14T15:17:47;28.20;52.70
7030;DHT22;3556;53.500;10.176;2023-06-14T15:20:13;28.30;52.20
7030;DHT22;3556;53.500;10.176;2023-06-14T15:22:40;28.20;51.70
7030;DHT22;3556;53.500;10.176;2023-06-14T15:25:06;28.10;52.60
7030;DHT22;3556;53.500;10.176;2023-06-14T15:27:32;28.00;52.30
7030;DHT22;3556;53.500;10.176;2023-06-14T15:29:57;27.90;51.80
7030;DHT22;3556;53.500;10.176;2023-06-14T15:32:23;27.90;52.70
7030;DHT22;3556;53.500;10.176;2023-06-14T15:34:49;27.90;51.40
7030;DHT22;3556;53.500;10.176;2023-06-14T15:37:14;27.80;53.60
7030;DHT22;3556;53.500;10.176;2023-06-14T15:39:40;27.70;52.90
7030;DHT22;3556;53.500;10.176;2023-06-14T15:42:06;27.80;53.40
7030;DHT22;3556;53.500;10.176;2023-06-14T15:44:33;27.70;52.40
7030;DHT22;3556;53.500;10.176;2023-06-14T15:46:58;27.60;53.50
7030;DHT22;3556;53.500;10.176;2023-06-14T15:49:24;27.60;53.70
7030;DHT22;3556;53.500;10.176;2023-06-14T15:51:50;27.50;51.50
7030;DHT22;3556;53.500;10.176;2023-06-14T15:54:15;27.40;51.90
7030;DHT22;3556;53.500;10.176;2023-06-14T15:56:41;27.30;52.10
7030;DHT22;3556;53.500;10.176;2023-06-14T15:59:07;27.20;53.00
7030;DHT22;3556;53.500;10.176;2023-06-14T16:01:32;27.20;52.60